Time;durP1;ratioP1;P1;durP2;ratioP2;P2;SDS_P1;SDS_P2;PMS_P1;PMS_P2;Temp;Humidity;BMP_temperature;BMP_pressure;BME280_temperature;BME280_humidity;BME280_pressure;Samples;Min_cycle;Max_cycle;Signal;HPM_P1;HPM_P2
2024/03/30 00:02:01;;;;;;;3.40;2.30;;;;;;;9.52;87.02;99203.70;78292;1293;3028847;-60
2024/03/30 00:04:28;;;;;;;3.90;2.70;;;;;;;9.26;88.13;99209.11;79407;1294;3013538;-59
2024/03/30 00:06:55;;;;;;;5.60;2.50;;;;;;;9.22;88.31;99209.88;79378;1295;3012127;-59
2024/03/30 00:09:22;;;;;;;3.20;2.10;;;;;;;9.14;88.56;99222.75;78238;1294;3029477;-60
2024/03/30 00:11:49;;;;;;;4.60;2.00;;;;;;;9.56;87.82;99228.48;79477;1297;3020659;-59
2024/03/30 00:14:15;;;;;;;2.80;2.00;;;;;;;9.87;85.99;99221.73;79480;1294;3013019;-59
2024/03/30 00:16:43;;;;;;;5.10;2.40;;;;;;;9.83;85.68;99219.36;78236;1297;3028839;-61
2024/03/30 00:19:13;;;;;;;4.90;2.30;;;;;;;9.64;85.94;99215.09;79570;1294;3011581;-61
2024/03/30 00:21:41;;;;;;;3.30;2.30;;;;;;;9.31;87.13;99224.73;79054;1294;3011781;-58
2024/03/30 00:24:08;;;;;;;3.80;2.10;;;;;;;9.20;87.82;99227.63;79522;1295;3019302;-61
2024/03/30 00:26:35;;;;;;;4.60;2.40;;;;;;;8.97;89.12;99228.42;79375;1295;3012036;-57
2024/03/30 00:29:03;;;;;;;3.70;2.00;;;;;;;9.40;88.43;99229.10;78311;1297;3026450;-59
2024/03/30 00:31:31;;;;;;;3.30;2.10;;;;;;;9.58;86.98;99240.64;79361;1297;3013622;-59
2024/03/30 00:33:58;;;;;;;3.30;2.30;;;;;;;9.47;86.94;99243.17;79639;1294;3013372;-60
2024/03/30 00:36:26;;;;;;;4.50;2.00;;;;;;;9.33;87.32;99236.86;78284;1297;3050100;-59
2024/03/30 00:38:52;;;;;;;3.50;2.10;;;;;;;9.11;88.23;99238.30;79424;1295;3013547;-60
2024/03/30 00:41:19;;;;;;;6.70;2.50;;;;;;;8.97;88.97;99237.38;79473;1297;3011917;-61
2024/03/30 00:43:47;;;;;;;2.60;2.00;;;;;;;8.99;89.31;99246.00;78446;1297;3026518;-60
2024/03/30 00:46:13;;;;;;;2.80;2.00;;;;;;;9.47;87.86;99246.70;79508;1297;3013270;-62
2024/03/30 00:48:40;;;;;;;3.40;1.90;;;;;;;9.75;85.86;99246.61;79458;1297;3011826;-60
2024/03/30 00:51:08;;;;;;;3.20;1.90;;;;;;;9.55;85.78;99250.02;78190;1297;3026618;-60
2024/03/30 00:53:35;;;;;;;4.50;2.40;;;;;;;9.39;86.20;99250.48;79438;1295;3019843;-61
2024/03/30 00:56:02;;;;;;;4.20;2.50;;;;;;;9.12;87.32;99251.33;79438;1297;3012076;-61
2024/03/30 00:58:30;;;;;;;3.30;2.10;;;;;;;8.95;88.24;99260.17;78289;1297;3026176;-61
2024/03/30 01:00:57;;;;;;;2.70;1.80;;;;;;;8.86;88.90;99270.48;79571;1294;3012849;-61
2024/03/30 01:03:23;;;;;;;2.50;1.50;;;;;;;9.38;87.71;99278.66;79379;1294;3013801;-61
2024/03/30 01:05:51;;;;;;;3.50;1.80;;;;;;;9.70;85.29;99288.52;78425;1297;3026664;-61
2024/03/30 01:08:18;;;;;;;2.10;1.60;;;;;;;9.74;84.34;99286.88;79441;1297;3013322;-62
2024/03/30 01:10:45;;;;;;;2.50;1.70;;;;;;;9.55;84.50;99293.41;79599;1297;3011550;-63
2024/03/30 01:13:14;;;;;;;2.80;1.70;;;;;;;9.19;86.02;99287.83;78337;1295;3026558;-61
2024/03/30 01:15:41;;;;;;;3.40;1.90;;;;;;;9.13;86.28;99290.58;79512;1294;3013256;-62
2024/03/30 01:18:08;;;;;;;3.70;2.10;;;;;;;8.88;87.17;99294.66;79395;1294;3011573;-60
2024/03/30 01:20:37;;;;;;;4.00;1.80;;;;;;;8.81;87.98;99307.78;78447;1295;3049454;-58
2024/03/30 01:23:05;;;;;;;3.50;1.90;;;;;;;9.15;87.09;99307.07;79602;1295;3012806;-60
2024/03/30 01:25:32;;;;;;;4.10;2.20;;;;;;;9.33;85.88;99320.39;79664;1294;3011906;-62
2024/03/30 01:27:59;;;;;;;4.90;2.30;;;;;;;9.30;85.69;99324.22;78338;1297;3053143;-60
2024/03/30 01:30:26;;;;;;;5.70;2.20;;;;;;;9.20;85.72;99321.02;79439;1300;3013211;-61
2024/03/30 01:32:53;;;;;;;3.20;2.00;;;;;;;8.97;86.61;99331.17;79731;1295;3011504;-60
2024/03/30 01:35:21;;;;;;;3.20;2.10;;;;;;;8.83;87.16;99334.73;78282;1297;3026284;-61
2024/03/30 01:37:48;;;;;;;4.20;1.80;;;;;;;8.75;87.69;99339.54;79487;1297;3012811;-61
2024/03/30 01:40:15;;;;;;;4.80;2.30;;;;;;;9.31;86.86;99337.48;79413;1294;3011308;-59
2024/03/30 01:42:43;;;;;;;6.70;2.20;;;;;;;9.53;84.74;99344.22;78270;1297;3027814;-60
2024/03/30 01:45:09;;;;;;;6.10;2.40;;;;;;;9.38;84.61;99345.10;79634;1297;3013683;-62
2024/03/30 01:47:36;;;;;;;3.20;2.40;;;;;;;9.27;85.17;99344.15;79462;1294;3013121;-61
2024/03/30 01:50:04;;;;;;;4.50;2.40;;;;;;;9.13;85.57;99342.50;78220;1295;3027602;-61
2024/03/30 01:52:31;;;;;;;5.80;2.60;;;;;;;8.90;86.47;99351.65;79345;1295;3020574;-61
2024/03/30 01:54:58;;;;;;;5.70;3.00;;;;;;;8.78;87.05;99354.38;79534;1297;3011687;-60
2024/03/30 01:57:26;;;;;;;2.70;1.90;;;;;;;8.79;87.15;99359.20;78019;1301;3026382;-59
2024/03/30 01:59:52;;;;;;;3.10;1.70;;;;;;;9.25;85.96;99362.79;79404;1300;3013555;-61
2024/03/30 02:02:19;;;;;;;4.90;1.90;;;;;;;9.69;83.93;99365.54;79364;1300;3013305;-62
2024/03/30 02:04:47;;;;;;;3.80;2.10;;;;;;;9.63;83.20;99373.06;78255;1297;3026583;-59
2024/03/30 02:07:14;;;;;;;3.50;2.30;;;;;;;9.35;83.68;99389.31;79446;1293;3013040;-60
2024/03/30 02:09:40;;;;;;;2.90;1.90;;;;;;;9.18;84.50;99383.64;79345;1298;3012939;-60
2024/03/30 02:12:09;;;;;;;6.90;2.10;;;;;;;9.00;85.15;99388.26;78071;1300;3029089;-58
2024/03/30 02:14:35;;;;;;;6.00;1.90;;;;;;;8.84;85.97;99390.23;79370;1294;3013266;-58
2024/03/30 02:17:02;;;;;;;3.00;1.80;;;;;;;8.76;86.55;99396.04;79446;1295;3011404;-60
2024/03/30 02:19:31;;;;;;;2.50;1.60;;;;;;;9.21;85.88;99403.90;78100;1295;3025490;-59
2024/03/30 02:21:58;;;;;;;4.80;2.40;;;;;;;9.63;83.75;99410.81;79675;1297;3013034;-59
2024/03/30 02:24:24;;;;;;;2.90;2.00;;;;;;;9.46;83.51;99418.80;79654;1295;3013134;-60
2024/03/30 02:26:52;;;;;;;4.40;2.00;;;;;;;9.36;83.94;99422.67;78302;1297;3051965;-61
2024/03/30 02:29:19;;;;;;;6.00;2.20;;;;;;;9.08;84.78;99423.52;79576;1297;3013612;-59
2024/03/30 02:31:45;;;;;;;4.20;2.40;;;;;;;8.88;85.83;99428.27;79117;1301;3013291;-60
2024/03/30 02:34:13;;;;;;;4.80;2.30;;;;;;;8.72;86.60;99438.73;78294;1297;3028852;-59
2024/03/30 02:36:40;;;;;;;7.30;1.70;;;;;;;8.60;87.75;99438.85;79241;1297;3013624;-61
2024/03/30 02:39:07;;;;;;;4.80;2.80;;;;;;;9.03;86.84;99450.30;79582;1298;3013955;-61
2024/03/30 02:41:35;;;;;;;4.80;2.40;;;;;;;9.26;85.33;99452.60;78361;1297;3027788;-61
2024/03/30 02:44:02;;;;;;;4.00;2.40;;;;;;;9.26;84.89;99449.62;79612;1298;3013121;-58
2024/03/30 02:46:28;;;;;;;7.20;2.90;;;;;;;9.06;85.42;99453.16;79421;1297;3013082;-58
2024/03/30 02:48:56;;;;;;;4.60;2.40;;;;;;;8.99;85.40;99449.84;78190;1297;3028595;-61
2024/03/30 02:51:23;;;;;;;4.70;2.90;;;;;;;8.69;86.84;99468.18;79653;1295;3013241;-60
2024/03/30 02:53:50;;;;;;;4.70;2.40;;;;;;;8.63;86.96;99466.07;79460;1295;3013234;-63
2024/03/30 02:56:18;;;;;;;6.40;2.60;;;;;;;8.61;88.15;99454.33;78402;1297;3026298;-59
2024/03/30 02:58:45;;;;;;;4.90;2.50;;;;;;;9.12;86.35;99455.25;79539;1295;3013159;-59
2024/03/30 03:01:11;;;;;;;5.10;2.70;;;;;;;9.23;84.60;99462.14;79377;1297;3013353;-61
2024/03/30 03:03:39;;;;;;;5.20;3.10;;;;;;;9.17;84.36;99463.52;78295;1297;3026014;-59
2024/03/30 03:06:06;;;;;;;4.90;3.20;;;;;;;8.89;85.18;99460.36;79496;1293;3013406;-62
2024/03/30 03:08:32;;;;;;;7.10;3.60;;;;;;;8.70;85.88;99452.25;79365;1294;3012940;-60
2024/03/30 03:11:00;;;;;;;8.50;3.90;;;;;;;8.64;86.17;99459.73;78620;1297;3028715;-60
2024/03/30 03:13:27;;;;;;;7.70;4.40;;;;;;;8.50;86.87;99462.77;79524;1297;3018883;-59
2024/03/30 03:15:54;;;;;;;10.00;5.40;;;;;;;9.05;85.45;99468.23;79405;1297;3011627;-60
2024/03/30 03:18:22;;;;;;;14.20;5.50;;;;;;;9.39;83.23;99460.94;78228;1297;3028211;-61
2024/03/30 03:20:49;;;;;;;15.50;7.90;;;;;;;9.44;82.47;99463.64;79515;1295;3013144;-62
2024/03/30 03:23:15;;;;;;;25.30;11.40;;;;;;;9.13;82.98;99468.30;79551;1294;3013141;-60
2024/03/30 03:25:43;;;;;;;26.50;11.40;;;;;;;8.97;83.87;99473.71;78252;1294;3025675;-59
2024/03/30 03:28:10;;;;;;;15.20;8.50;;;;;;;8.79;84.49;99480.27;79393;1297;3013782;-61
2024/03/30 03:30:36;;;;;;;17.30;9.00;;;;;;;8.75;84.46;99478.17;79458;1297;3013166;-61
2024/03/30 03:33:04;;;;;;;12.60;7.60;;;;;;;8.58;85.12;99476.45;78504;1297;3026687;-59
2024/03/30 03:35:31;;;;;;;13.80;7.00;;;;;;;8.53;86.02;99482.16;79436;1295;3013520;-60
2024/03/30 03:37:57;;;;;;;11.00;5.70;;;;;;;9.05;84.74;99481.33;79529;1297;3011998;-61
2024/03/30 03:40:25;;;;;;;7.30;5.00;;;;;;;9.26;83.48;99490.63;78102;1297;3029034;-59
2024/03/30 03:42:52;;;;;;;8.60;5.00;;;;;;;9.25;82.80;99494.02;79468;1296;3013430;-60
2024/03/30 03:45:19;;;;;;;8.20;4.60;;;;;;;8.98;83.59;99491.61;79326;1297;3011432;-60
2024/03/30 03:47:47;;;;;;;18.70;4.80;;;;;;;8.76;84.53;99494.03;78258;1297;3026653;-59
2024/03/30 03:50:13;;;;;;;8.10;4.20;;;;;;;8.61;85.52;99508.27;79481;1295;3013426;-58
2024/03/30 03:52:40;;;;;;;7.10;3.70;;;;;;;8.53;85.96;99523.00;79601;1296;3011655;-61
2024/03/30 03:55:08;;;;;;;5.80;3.30;;;;;;;8.38;86.76;99517.77;78238;1298;3028234;-62
2024/03/30 03:57:34;;;;;;;6.20;3.00;;;;;;;9.03;85.91;99520.37;79479;1297;3013009;-60
2024/03/30 04:00:01;;;;;;;5.00;3.20;;;;;;;9.42;83.25;99527.22;79492;1297;3011821;-59
2024/03/30 04:02:39;;;;;;;4.90;2.90;;;;;;;9.30;82.86;99536.41;78158;1297;3049928;-60
2024/03/30 04:05:06;;;;;;;4.30;2.90;;;;;;;9.06;83.55;99540.34;79391;1294;3018596;-60
2024/03/30 04:07:33;;;;;;;5.00;3.00;;;;;;;8.99;83.80;99545.92;79461;1297;3013395;-62
2024/03/30 04:10:00;;;;;;;4.00;3.20;;;;;;;8.80;84.65;99551.99;78367;1297;3026158;-61
2024/03/30 04:12:28;;;;;;;6.80;3.90;;;;;;;8.71;84.75;99552.80;79505;1297;3013616;-60
2024/03/30 04:14:55;;;;;;;6.30;3.80;;;;;;;8.57;85.30;99551.75;79647;1295;3013420;-60
2024/03/30 04:17:23;;;;;;;6.90;2.90;;;;;;;8.44;86.45;99538.07;78305;1298;3050067;-59
2024/03/30 04:19:49;;;;;;;6.30;2.60;;;;;;;9.14;84.87;99545.84;79564;1295;3019386;-60
2024/03/30 04:22:16;;;;;;;5.20;2.90;;;;;;;9.35;82.49;99533.73;79459;1297;3011573;-63
2024/03/30 04:24:44;;;;;;;5.20;3.20;;;;;;;9.45;82.12;99535.77;78334;1298;3027658;-61
2024/03/30 04:27:10;;;;;;;5.60;3.10;;;;;;;9.24;82.16;99532.05;79477;1297;3021230;-61
2024/03/30 04:29:37;;;;;;;6.00;3.20;;;;;;;9.05;82.77;99541.80;79434;1294;3011662;-61
2024/03/30 04:32:05;;;;;;;5.00;3.10;;;;;;;8.89;83.47;99537.22;78371;1297;3028895;-59
2024/03/30 04:34:31;;;;;;;5.70;3.60;;;;;;;8.82;83.89;99541.22;79442;1295;3018452;-60
2024/03/30 04:36:58;;;;;;;7.00;3.50;;;;;;;8.66;84.37;99545.01;79584;1297;3012853;-62
2024/03/30 04:39:26;;;;;;;7.20;3.40;;;;;;;8.63;85.12;99545.51;78266;1297;3026767;-61
2024/03/30 04:41:52;;;;;;;5.50;3.40;;;;;;;9.28;83.31;99545.98;79494;1298;3013041;-61
2024/03/30 04:44:19;;;;;;;10.40;4.20;;;;;;;9.56;81.47;99556.01;79477;1298;3011951;-60
2024/03/30 04:46:47;;;;;;;10.60;5.70;;;;;;;9.63;80.51;99557.16;78197;1295;3027539;-60
2024/03/30 04:49:13;;;;;;;9.20;5.30;;;;;;;9.41;80.66;99566.23;79627;1295;3018775;-59
2024/03/30 04:51:40;;;;;;;6.80;4.50;;;;;;;9.35;80.95;99564.47;79566;1298;3011659;-60
2024/03/30 04:54:08;;;;;;;10.30;6.00;;;;;;;9.24;81.42;99573.77;78146;1294;3025881;-61
2024/03/30 04:56:35;;;;;;;12.60;7.20;;;;;;;9.09;81.83;99576.49;79420;1297;3013270;-61
2024/03/30 04:59:01;;;;;;;21.20;11.80;;;;;;;9.12;81.96;99572.37;79350;1293;3012257;-59
2024/03/30 05:01:29;;;;;;;18.50;11.60;;;;;;;8.95;82.37;99579.71;78321;1297;3029562;-60
2024/03/30 05:03:56;;;;;;;15.10;9.10;;;;;;;9.06;82.16;99577.52;79586;1296;3013661;-62
2024/03/30 05:06:22;;;;;;;24.00;11.30;;;;;;;9.73;80.39;99574.10;79472;1297;3011649;-61
2024/03/30 05:08:50;;;;;;;36.80;14.10;;;;;;;10.06;78.14;99568.45;78403;1298;3028913;-62
2024/03/30 05:11:17;;;;;;;22.50;12.20;;;;;;;10.05;77.90;99571.09;79475;1297;3013336;-61
2024/03/30 05:13:44;;;;;;;29.40;13.60;;;;;;;9.99;77.61;99566.39;79344;1295;3011752;-61
2024/03/30 05:16:11;;;;;;;23.20;12.40;;;;;;;9.95;77.86;99568.36;78209;1297;3028372;-60
2024/03/30 05:18:38;;;;;;;14.90;7.80;;;;;;;9.69;78.41;99564.36;80062;1295;3012719;-58
2024/03/30 05:21:05;;;;;;;8.60;5.00;;;;;;;9.57;79.01;99557.70;79607;1297;3011205;-59
2024/03/30 05:23:34;;;;;;;10.20;4.10;;;;;;;9.44;79.85;99558.08;78277;1294;3026598;-60
2024/03/30 05:26:02;;;;;;;10.30;3.50;;;;;;;9.41;80.18;99556.27;79524;1295;3013608;-59
2024/03/30 05:28:35;;;;;;;6.30;3.90;;;;;;;9.47;79.87;99565.42;78870;1297;3011652;-62
2024/03/30 05:31:19;;;;;;;10.40;4.50;;;;;;;9.38;80.44;99577.77;79520;1294;3011893;-60
2024/03/30 05:33:47;;;;;;;6.20;3.20;;;;;;;9.50;80.51;99582.91;78235;1295;3050451;-60
2024/03/30 05:36:17;;;;;;;4.30;2.80;;;;;;;10.13;78.97;99596.02;79738;1295;3012849;-60
2024/03/30 05:38:46;;;;;;;6.90;3.00;;;;;;;10.68;76.46;99591.36;79596;1298;3011578;-61
2024/03/30 05:41:12;;;;;;;5.30;3.20;;;;;;;10.50;76.17;99589.59;79957;1294;3013236;-61
2024/03/30 05:43:39;;;;;;;4.50;3.50;;;;;;;10.28;76.49;99599.58;79531;1297;3011696;-61
2024/03/30 05:46:07;;;;;;;5.60;3.50;;;;;;;10.04;77.29;99611.77;78218;1293;3027575;-61
2024/03/30 05:48:34;;;;;;;6.40;3.40;;;;;;;9.98;77.81;99617.88;79819;1295;3014259;-60
2024/03/30 05:51:01;;;;;;;5.90;3.90;;;;;;;9.94;78.04;99615.50;79414;1294;3012888;-61
2024/03/30 05:53:30;;;;;;;6.70;4.10;;;;;;;10.02;77.95;99627.13;78296;1297;3050969;-61
2024/03/30 05:55:57;;;;;;;6.60;4.00;;;;;;;10.07;77.74;99634.02;79959;1297;3013219;-60
2024/03/30 05:58:23;;;;;;;7.30;5.20;;;;;;;10.17;77.46;99637.33;79652;1297;3011865;-63
2024/03/30 06:00:51;;;;;;;10.10;6.10;;;;;;;10.14;76.99;99640.47;78233;1295;3026210;-59
2024/03/30 06:03:18;;;;;;;10.60;6.50;;;;;;;10.16;77.07;99645.63;79572;1297;3012926;-61
2024/03/30 06:05:44;;;;;;;18.90;10.60;;;;;;;10.24;76.90;99653.35;79518;1298;3011507;-63
2024/03/30 06:08:12;;;;;;;21.40;10.50;;;;;;;10.33;75.98;99654.09;78460;1297;3028031;-61
2024/03/30 06:10:39;;;;;;;19.50;10.10;;;;;;;10.33;76.08;99650.10;79429;1297;3018271;-59
2024/03/30 06:13:05;;;;;;;17.70;9.90;;;;;;;10.35;76.57;99644.73;79773;1298;3011474;-62
2024/03/30 06:15:34;;;;;;;20.80;9.60;;;;;;;10.46;76.23;99654.08;78282;1298;3028233;-60
2024/03/30 06:18:00;;;;;;;17.10;8.70;;;;;;;10.54;76.00;99657.85;79613;1295;3021034;-60
2024/03/30 06:20:28;;;;;;;15.30;7.70;;;;;;;10.62;75.71;99662.30;79462;1297;3012342;-60
2024/03/30 06:22:56;;;;;;;11.10;6.80;;;;;;;10.55;75.65;99666.52;78276;1297;3026846;-60
2024/03/30 06:25:22;;;;;;;10.30;6.80;;;;;;;10.57;75.20;99668.16;79492;1294;3012724;-60
2024/03/30 06:27:49;;;;;;;9.70;6.20;;;;;;;10.56;75.21;99666.48;79806;1296;3012977;-62
2024/03/30 06:30:17;;;;;;;15.40;7.90;;;;;;;10.58;74.84;99665.52;78595;1295;3028810;-61
2024/03/30 06:32:43;;;;;;;12.60;7.70;;;;;;;10.53;75.27;99663.46;79784;1294;3013345;-61
2024/03/30 06:35:10;;;;;;;16.10;9.70;;;;;;;10.59;74.58;99664.20;79596;1298;3011624;-61
2024/03/30 06:37:38;;;;;;;15.20;7.70;;;;;;;10.60;74.63;99669.08;78281;1297;3026615;-60
2024/03/30 06:45:38;;;;;;;14.80;7.20;;;;;;;10.75;73.88;99675.41;78193;1297;3052787;-59
2024/03/30 06:48:05;;;;;;;12.30;6.60;;;;;;;10.89;73.59;99680.19;79546;1297;3013498;-60
2024/03/30 06:50:32;;;;;;;11.30;6.70;;;;;;;11.08;73.33;99684.84;79494;1297;3013543;-63
2024/03/30 06:53:00;;;;;;;9.40;5.40;;;;;;;11.22;72.69;99685.92;78240;1297;3026315;-61
2024/03/30 06:55:26;;;;;;;7.80;4.40;;;;;;;11.27;71.71;99687.79;79656;1298;3019009;-64
2024/03/30 06:57:53;;;;;;;5.90;3.90;;;;;;;11.14;70.92;99694.69;79727;1298;3011542;-62
2024/03/30 07:00:21;;;;;;;4.50;3.70;;;;;;;11.12;70.67;99694.23;78569;1298;3026382;-61
2024/03/30 07:02:49;;;;;;;8.00;4.30;;;;;;;11.26;70.63;99693.78;79574;1295;3018633;-61
2024/03/30 07:05:16;;;;;;;6.20;3.30;;;;;;;11.19;69.82;99694.57;79382;1295;3011413;-63
2024/03/30 07:07:43;;;;;;;5.60;3.90;;;;;;;11.28;69.86;99690.68;78260;1297;3049499;-59
2024/03/30 07:10:10;;;;;;;6.20;3.90;;;;;;;11.34;70.07;99692.11;79520;1298;3012933;-61
2024/03/30 07:12:37;;;;;;;6.40;3.70;;;;;;;11.47;69.61;99693.05;79530;1298;3013879;-60
2024/03/30 07:15:05;;;;;;;5.00;3.60;;;;;;;11.52;69.16;99690.98;79028;1295;3026679;-59
2024/03/30 07:17:33;;;;;;;4.10;2.60;;;;;;;11.57;68.70;99690.17;79789;1293;3013208;-60
2024/03/30 07:20:00;;;;;;;5.00;3.10;;;;;;;11.56;68.50;99686.85;79371;1294;3011806;-61
2024/03/30 07:22:28;;;;;;;6.60;2.90;;;;;;;11.65;69.13;99687.73;78846;1297;3050156;-60
2024/03/30 07:24:54;;;;;;;5.90;3.30;;;;;;;11.88;69.12;99686.69;79657;1309;3018538;-60
2024/03/30 07:27:21;;;;;;;3.90;2.70;;;;;;;12.03;68.21;99702.05;79485;1297;3011763;-59
2024/03/30 07:29:50;;;;;;;6.10;3.10;;;;;;;12.06;67.39;99709.83;78380;1297;3026023;-60
2024/03/30 07:32:16;;;;;;;5.60;3.20;;;;;;;12.18;67.14;99711.53;79952;1296;3015321;-60
2024/03/30 07:34:46;;;;;;;4.80;2.70;;;;;;;12.19;66.30;99716.40;79822;1295;3011615;-60
2024/03/30 07:37:14;;;;;;;4.50;2.90;;;;;;;12.17;66.69;99711.06;78370;1298;3049272;-60
2024/03/30 07:39:41;;;;;;;3.70;2.50;;;;;;;12.22;65.93;99702.83;79520;1298;3018338;-59
2024/03/30 07:42:08;;;;;;;4.50;3.10;;;;;;;12.30;66.07;99702.14;79592;1295;3012142;-60
2024/03/30 07:44:36;;;;;;;6.20;2.70;;;;;;;12.47;65.93;99697.71;78614;1297;3026342;-59
2024/03/30 07:47:04;;;;;;;2.90;2.60;;;;;;;12.71;65.54;99700.73;80413;1296;3013640;-61
2024/03/30 07:49:32;;;;;;;4.50;3.10;;;;;;;12.86;64.45;99703.24;79555;1295;3012954;-61
2024/03/30 07:52:01;;;;;;;4.40;3.30;;;;;;;12.98;62.96;99705.30;78176;1301;3048898;-60
2024/03/30 07:54:27;;;;;;;4.20;2.90;;;;;;;13.13;62.22;99709.39;79510;1298;3013866;-61
2024/03/30 07:56:58;;;;;;;4.80;2.90;;;;;;;13.27;62.39;99719.91;79754;1295;3012383;-60
2024/03/30 07:59:26;;;;;;;5.10;3.50;;;;;;;13.37;62.12;99719.55;78767;1295;3051866;-60
2024/03/30 08:01:53;;;;;;;3.50;3.00;;;;;;;13.24;61.20;99730.63;79911;1297;3019099;-60
2024/03/30 08:04:21;;;;;;;5.70;3.50;;;;;;;13.14;62.44;99742.36;79517;1297;3013100;-59
2024/03/30 08:06:49;;;;;;;6.40;3.40;;;;;;;13.17;62.03;99744.14;78258;1297;3049771;-60
2024/03/30 08:09:15;;;;;;;5.60;3.70;;;;;;;13.20;61.12;99746.90;79555;1297;3013375;-61
2024/03/30 08:11:43;;;;;;;5.70;4.20;;;;;;;13.34;61.23;99744.77;79400;1294;3011454;-61
2024/03/30 08:14:11;;;;;;;9.40;5.10;;;;;;;13.40;59.76;99751.58;78418;1297;3053205;-61
2024/03/30 08:16:38;;;;;;;6.50;4.30;;;;;;;13.48;59.19;99752.64;79434;1295;3013591;-62
2024/03/30 08:19:07;;;;;;;11.80;6.40;;;;;;;13.70;59.40;99749.55;79505;1295;3011830;-61
2024/03/30 08:21:35;;;;;;;11.70;7.70;;;;;;;13.72;57.79;99759.05;78323;1297;3050908;-59
2024/03/30 08:24:02;;;;;;;14.60;6.70;;;;;;;13.85;58.28;99754.15;79939;1298;3013452;-60
2024/03/30 08:26:29;;;;;;;10.80;6.10;;;;;;;13.93;57.85;99753.05;79837;1297;3013112;-61
2024/03/30 08:28:57;;;;;;;9.60;4.90;;;;;;;14.11;58.09;99754.27;78387;1298;3027661;-60
2024/03/30 08:31:23;;;;;;;7.50;4.60;;;;;;;14.24;56.70;99758.98;79515;1297;3012685;-61
2024/03/30 08:33:52;;;;;;;5.30;3.50;;;;;;;14.33;56.96;99766.98;79570;1295;3011886;-59
2024/03/30 08:36:20;;;;;;;5.10;3.00;;;;;;;14.36;56.58;99769.79;78305;1297;3050028;-60
2024/03/30 08:38:47;;;;;;;7.30;2.60;;;;;;;14.34;54.29;99778.67;79602;1298;3013847;-61
2024/03/30 08:41:13;;;;;;;5.90;3.10;;;;;;;14.27;53.78;99778.14;79609;1295;3011981;-61
2024/03/30 08:43:41;;;;;;;3.40;2.70;;;;;;;14.38;52.12;99768.23;78628;1298;3027629;-59
2024/03/30 08:46:08;;;;;;;4.10;2.60;;;;;;;14.55;52.72;99768.41;79496;1298;3013739;-60
2024/03/30 08:48:35;;;;;;;8.20;2.90;;;;;;;14.69;52.89;99762.84;79448;1297;3012035;-60
2024/03/30 08:51:03;;;;;;;3.90;2.70;;;;;;;14.72;52.89;99774.27;78419;1297;3050180;-60
2024/03/30 08:53:30;;;;;;;4.80;2.80;;;;;;;14.72;53.17;99766.48;79469;1298;3013640;-63
2024/03/30 08:55:59;;;;;;;3.30;2.70;;;;;;;14.75;52.81;99770.67;80063;1295;3011643;-60
2024/03/30 08:58:27;;;;;;;5.10;2.90;;;;;;;14.79;52.04;99775.34;78667;1297;3051952;-62
2024/03/30 09:00:53;;;;;;;6.20;2.50;;;;;;;14.91;51.62;99773.95;79569;1295;3018399;-61
2024/03/30 09:03:20;;;;;;;6.10;2.50;;;;;;;14.91;49.74;99772.86;79730;1295;3012446;-61
2024/03/30 09:05:48;;;;;;;3.30;2.30;;;;;;;14.98;50.22;99780.67;79121;1295;3028417;-60
2024/03/30 09:08:14;;;;;;;4.20;2.30;;;;;;;15.07;50.36;99780.86;80711;1298;3018701;-61
2024/03/30 09:10:42;;;;;;;3.80;2.40;;;;;;;15.16;50.22;99782.15;79651;1297;3011620;-62
2024/03/30 09:13:10;;;;;;;7.50;2.60;;;;;;;15.15;48.20;99786.98;78815;1295;3052569;-60
2024/03/30 09:15:36;;;;;;;4.80;2.70;;;;;;;15.09;48.96;99785.83;80401;1298;3012665;-63
2024/03/30 09:18:04;;;;;;;6.10;2.60;;;;;;;15.25;49.01;99781.84;79662;1295;3011743;-59
2024/03/30 09:20:32;;;;;;;3.10;2.50;;;;;;;15.29;48.46;99785.73;78367;1298;3026531;-61
2024/03/30 09:22:59;;;;;;;4.30;3.00;;;;;;;15.39;48.54;99790.69;79322;1298;3012713;-61
2024/03/30 09:25:26;;;;;;;3.50;2.60;;;;;;;15.35;47.81;99791.69;79853;1298;3012031;-61
2024/03/30 09:27:54;;;;;;;4.20;2.60;;;;;;;15.39;48.30;99786.08;78311;1300;3052630;-60
2024/03/30 09:30:20;;;;;;;3.60;2.60;;;;;;;15.53;47.37;99791.69;80158;1295;3013373;-62
2024/03/30 09:32:47;;;;;;;5.20;2.90;;;;;;;15.77;47.72;99787.60;79574;1295;3011654;-61
2024/03/30 09:35:15;;;;;;;7.80;3.30;;;;;;;15.92;46.54;99793.52;78276;1308;3028828;-60
2024/03/30 09:37:41;;;;;;;8.60;3.80;;;;;;;15.97;46.06;99800.04;79398;1308;3013808;-63
2024/03/30 09:40:09;;;;;;;9.40;4.10;;;;;;;16.10;45.87;99792.89;79560;1298;3011337;-61
2024/03/30 09:42:40;;;;;;;16.10;6.70;;;;;;;16.08;44.84;99788.19;78696;1299;3052393;-60
2024/03/30 09:45:10;;;;;;;19.60;6.80;;;;;;;16.13;43.74;99791.19;79674;1294;3011523;-60
2024/03/30 09:47:39;;;;;;;16.80;7.30;;;;;;;16.22;43.75;99785.66;78244;1301;3048235;-59
2024/03/30 09:50:10;;;;;;;15.80;6.80;;;;;;;16.37;42.84;99784.19;79418;1298;3013887;-61
2024/03/30 09:52:41;;;;;;;16.80;5.70;;;;;;;16.37;41.63;99785.61;78475;1301;3053923;-59
2024/03/30 09:55:10;;;;;;;17.20;6.20;;;;;;;16.37;41.34;99788.06;79367;1295;3011519;-61
2024/03/30 09:57:43;;;;;;;13.10;5.50;;;;;;;16.51;41.38;99788.89;78390;1298;3068039;-61
2024/03/30 10:00:12;;;;;;;13.50;5.60;;;;;;;16.57;40.64;99778.55;79906;1301;3011582;-62
2024/03/30 10:02:40;;;;;;;15.20;5.70;;;;;;;16.69;40.63;99779.30;78435;1300;3056172;-60
2024/03/30 10:05:09;;;;;;;13.10;5.30;;;;;;;16.74;39.80;99779.29;79301;1294;3013477;-62
2024/03/30 10:07:58;;;;;;;10.80;5.40;;;;;;;16.91;39.63;99783.27;80633;1299;3013688;-59
2024/03/30 10:10:27;;;;;;;16.20;5.30;;;;;;;17.01;38.03;99778.14;78379;1298;3052829;-60
2024/03/30 10:12:58;;;;;;;13.00;4.60;;;;;;;16.97;37.23;99778.47;79597;1300;3012663;-62
2024/03/30 10:15:43;;;;;;;15.20;5.50;;;;;;;17.09;37.18;99776.11;78374;1300;3052376;-60
2024/03/30 10:18:11;;;;;;;15.20;5.30;;;;;;;16.91;37.70;99779.31;78297;1299;3057133;-61
2024/03/30 10:20:38;;;;;;;11.80;5.40;;;;;;;16.93;37.96;99777.05;79517;1296;3012531;-60
2024/03/30 10:23:05;;;;;;;18.10;5.70;;;;;;;16.95;37.80;99776.52;79564;1296;3011374;-64
2024/03/30 10:25:34;;;;;;;12.20;5.10;;;;;;;17.17;37.88;99778.81;78035;1311;3052552;-61
2024/03/30 10:28:02;;;;;;;11.00;4.10;;;;;;;17.43;37.70;99774.64;79600;1297;3011614;-60
2024/03/30 10:30:31;;;;;;;14.30;4.90;;;;;;;17.51;38.82;99771.37;79022;1307;3013129;-61
2024/03/30 10:33:03;;;;;;;10.60;4.40;;;;;;;17.74;39.12;99765.17;79580;1294;3013328;-61
2024/03/30 10:35:31;;;;;;;11.40;3.90;;;;;;;17.68;40.26;99758.60;78319;1295;3048776;-60
2024/03/30 10:37:58;;;;;;;6.90;3.60;;;;;;;17.77;41.26;99758.14;79508;1298;3018429;-61
2024/03/30 10:40:25;;;;;;;9.10;2.90;;;;;;;17.79;40.86;99759.59;79459;1298;3011651;-60
2024/03/30 10:42:54;;;;;;;4.80;3.30;;;;;;;17.65;40.75;99754.80;78577;1308;3028283;-61
2024/03/30 10:45:21;;;;;;;6.70;2.60;;;;;;;17.69;40.64;99750.73;79395;1294;3014949;-60
2024/03/30 10:47:47;;;;;;;5.50;2.50;;;;;;;17.73;41.00;99751.94;79450;1298;3011951;-61
2024/03/30 10:50:15;;;;;;;4.40;2.20;;;;;;;17.79;41.52;99758.14;78380;1297;3049483;-62
2024/03/30 10:52:42;;;;;;;4.90;2.40;;;;;;;17.95;41.67;99741.57;79814;1298;3013343;-60
2024/03/30 10:55:08;;;;;;;10.00;4.40;;;;;;;18.08;41.20;99743.84;79506;1299;3011736;-63
2024/03/30 10:57:36;;;;;;;7.40;2.90;;;;;;;17.91;41.31;99755.92;78441;1295;3025232;-61
2024/03/30 11:00:07;;;;;;;4.80;2.90;;;;;;;18.04;41.24;99748.59;79672;1299;3013530;-59
2024/03/30 11:02:35;;;;;;;7.20;3.20;;;;;;;18.18;40.95;99755.03;78347;1294;3054928;-60
2024/03/30 11:05:02;;;;;;;8.00;2.50;;;;;;;18.19;41.20;99753.27;79474;1298;3013228;-60
2024/03/30 11:07:29;;;;;;;4.20;2.20;;;;;;;18.32;41.19;99752.74;79582;1293;3012048;-61
2024/03/30 11:09:57;;;;;;;4.50;2.30;;;;;;;18.39;40.85;99754.56;78407;1298;3053300;-60
2024/03/30 11:12:24;;;;;;;5.20;2.40;;;;;;;18.16;40.62;99765.80;79647;1298;3013016;-60
2024/03/30 11:14:50;;;;;;;7.90;2.80;;;;;;;17.93;40.95;99763.15;79275;1295;3013682;-62
2024/03/30 11:17:22;;;;;;;6.60;2.70;;;;;;;17.80;41.47;99754.88;78232;1298;3026979;-61
2024/03/30 11:20:00;;;;;;;6.40;1.90;;;;;;;17.95;41.05;99755.42;79634;1297;3011894;-61
2024/03/30 11:22:41;;;;;;;3.10;2.20;;;;;;;18.13;40.92;99757.21;78197;1296;3053200;-61
2024/03/30 11:25:09;;;;;;;6.80;3.40;;;;;;;18.02;41.42;99755.67;78268;1297;3050899;-60
2024/03/30 11:27:36;;;;;;;4.90;2.30;;;;;;;17.93;41.70;99753.39;79700;1298;3013866;-61